Time;durP1;ratioP1;P1;durP2;ratioP2;P2;SDS_P1;SDS_P2;PMS_P1;PMS_P2;Temp;Humidity;BMP_temperature;BMP_pressure;BME280_temperature;BME280_humidity;BME280_pressure;Samples;Min_cycle;Max_cycle;Signal;HPM_P1;HPM_P2
2022/09/18 05:00:26;;;;;;;3.87;1.47;;;11.20;97.20;;;;;;1734206;28;20180;-71
2022/09/18 05:01:17;;;;;;;2.28;1.02;;;11.20;97.20;;;;;;1734094;28;20211;-71
2022/09/18 05:02:09;;;;;;;1.50;1.03;;;11.20;97.20;;;;;;1739750;28;20191;-71
2022/09/18 05:02:59;;;;;;;2.92;1.10;;;11.20;97.20;;;;;;1741020;28;20845;-71
2022/09/18 05:03:51;;;;;;;2.87;1.10;;;11.20;97.20;;;;;;1741020;28;20209;-71
2022/09/18 05:04:42;;;;;;;4.15;1.20;;;11.20;97.20;;;;;;1741003;28;20844;-71
2022/09/18 05:05:34;;;;;;;2.20;1.17;;;11.20;97.20;;;;;;1740989;28;20680;-71
2022/09/18 05:06:24;;;;;;;1.92;1.08;;;11.20;97.20;;;;;;1740812;28;20219;-71
2022/09/18 05:07:16;;;;;;;2.20;1.33;;;11.30;97.20;;;;;;1740634;28;20201;-71
2022/09/18 05:08:07;;;;;;;1.60;1.20;;;11.30;97.20;;;;;;1740941;28;20210;-71
2022/09/18 05:08:59;;;;;;;2.03;1.10;;;11.30;97.20;;;;;;1740930;28;20210;-71
2022/09/18 05:09:50;;;;;;;2.22;1.20;;;11.30;97.20;;;;;;1740975;28;20561;-71
2022/09/18 05:10:43;;;;;;;1.88;1.30;;;11.30;97.20;;;;;;1740978;28;20199;-71
2022/09/18 05:11:33;;;;;;;2.47;1.20;;;11.30;97.20;;;;;;1741060;28;20195;-71
2022/09/18 05:12:25;;;;;;;1.87;1.37;;;11.30;97.20;;;;;;1741017;28;20199;-71
2022/09/18 05:13:16;;;;;;;3.38;2.13;;;11.30;97.20;;;;;;1740987;28;20564;-71
2022/09/18 05:14:07;;;;;;;2.43;1.10;;;11.30;97.20;;;;;;1740512;28;20217;-71
2022/09/18 05:14:58;;;;;;;2.15;1.10;;;11.30;97.20;;;;;;1740880;28;20207;-71
2022/09/18 05:15:55;;;;;;;3.33;1.20;;;11.30;97.20;;;;;;1739138;28;20635;-71
2022/09/18 05:16:46;;;;;;;6.45;1.15;;;11.30;97.20;;;;;;1733914;28;20224;-71
2022/09/18 05:17:39;;;;;;;2.67;1.20;;;11.30;97.20;;;;;;1733564;28;20210;-72
2022/09/18 05:18:29;;;;;;;1.70;1.10;;;11.40;97.20;;;;;;1734056;28;20438;-71
2022/09/18 05:19:21;;;;;;;1.10;1.00;;;11.40;97.20;;;;;;1734125;28;20500;-71
2022/09/18 05:20:13;;;;;;;1.73;0.95;;;11.40;97.20;;;;;;1734045;28;20212;-72
2022/09/18 05:21:06;;;;;;;2.42;1.02;;;11.40;97.20;;;;;;1734008;28;20200;-71
2022/09/18 05:21:56;;;;;;;1.73;1.40;;;11.50;97.20;;;;;;1734118;28;20207;-71
2022/09/18 05:22:49;;;;;;;1.67;1.20;;;11.40;97.20;;;;;;1734076;28;20198;-71
2022/09/18 05:23:39;;;;;;;1.65;1.40;;;11.40;97.20;;;;;;1734052;28;20249;-71
2022/09/18 05:24:31;;;;;;;1.30;1.03;;;11.40;97.20;;;;;;1734168;28;20258;-71
2022/09/18 05:25:26;;;;;;;1.77;1.00;;;11.40;97.20;;;;;;1734044;28;20214;-71
2022/09/18 05:26:17;;;;;;;2.28;1.30;;;11.50;97.20;;;;;;1734049;28;20279;-71
2022/09/18 05:27:08;;;;;;;2.80;1.23;;;11.50;97.20;;;;;;1733998;28;20211;-71
2022/09/18 05:28:02;;;;;;;1.50;1.05;;;11.50;97.20;;;;;;1734119;28;20196;-71
2022/09/18 05:28:52;;;;;;;1.77;0.90;;;11.50;97.20;;;;;;1734003;28;20203;-71
2022/09/18 05:29:44;;;;;;;1.50;1.10;;;11.50;97.20;;;;;;1734007;28;20206;-71
2022/09/18 05:30:35;;;;;;;2.80;1.15;;;11.50;97.20;;;;;;1734029;28;20234;-71
2022/09/18 05:31:28;;;;;;;1.20;0.90;;;11.50;97.20;;;;;;1734052;28;20651;-71
2022/09/18 05:32:19;;;;;;;2.55;1.30;;;11.50;97.20;;;;;;1733970;28;20454;-71
2022/09/18 05:33:11;;;;;;;2.50;1.30;;;11.50;97.20;;;;;;1739379;28;20205;-71
2022/09/18 05:34:02;;;;;;;2.90;1.15;;;11.50;97.20;;;;;;1740953;28;20441;-71
2022/09/18 05:34:54;;;;;;;2.33;0.90;;;11.50;97.20;;;;;;1740966;28;20227;-70
2022/09/18 05:35:45;;;;;;;1.63;1.02;;;11.50;97.20;;;;;;1740819;28;20989;-71
2022/09/18 05:36:35;;;;;;;1.20;1.10;;;11.50;97.20;;;;;;1740806;28;20629;-71
2022/09/18 05:37:27;;;;;;;1.57;1.20;;;11.60;97.20;;;;;;1741941;28;20274;-71
2022/09/18 05:38:18;;;;;;;1.63;1.05;;;11.60;97.20;;;;;;1742153;28;20253;-71
2022/09/18 05:39:09;;;;;;;1.63;1.00;;;11.60;97.20;;;;;;1742180;28;20207;-72
2022/09/18 05:40:01;;;;;;;1.35;1.17;;;11.50;97.20;;;;;;1742119;28;20696;-71
2022/09/18 05:40:52;;;;;;;3.03;1.10;;;11.50;97.20;;;;;;1742207;28;20191;-71
2022/09/18 05:41:47;;;;;;;4.35;1.27;;;11.50;97.20;;;;;;1742160;28;20697;-71
2022/09/18 05:42:44;;;;;;;1.48;1.00;;;11.50;97.20;;;;;;1742136;28;20195;-71
2022/09/18 05:43:35;;;;;;;2.15;1.27;;;11.50;97.20;;;;;;1742179;28;20688;-71
2022/09/18 05:44:27;;;;;;;3.47;1.10;;;11.50;97.20;;;;;;1742130;28;20195;-71
2022/09/18 05:45:19;;;;;;;2.97;1.10;;;11.50;97.20;;;;;;1742150;28;20203;-71
2022/09/18 05:46:11;;;;;;;2.65;1.10;;;11.50;97.20;;;;;;1742021;28;20195;-71
2022/09/18 05:47:04;;;;;;;1.85;1.15;;;11.50;97.20;;;;;;1742100;28;20639;-71
2022/09/18 05:47:57;;;;;;;1.88;0.90;;;11.50;97.20;;;;;;1741798;28;20214;-71
2022/09/18 05:48:48;;;;;;;2.30;0.93;;;11.50;97.20;;;;;;1742012;28;20199;-71
2022/09/18 05:49:40;;;;;;;2.58;1.30;;;11.50;97.20;;;;;;1738726;28;20200;-71
2022/09/18 05:50:32;;;;;;;3.47;1.17;;;11.50;97.20;;;;;;1735177;28;20196;-71
2022/09/18 05:51:23;;;;;;;2.78;1.25;;;11.50;97.20;;;;;;1735187;28;20204;-71
2022/09/18 05:52:14;;;;;;;3.65;1.20;;;11.50;97.20;;;;;;1735262;28;20272;-71
2022/09/18 05:53:07;;;;;;;1.77;0.90;;;11.50;97.20;;;;;;1735166;28;20222;-71
2022/09/18 05:53:58;;;;;;;1.55;1.20;;;11.50;97.20;;;;;;1735192;28;20235;-71
2022/09/18 05:54:50;;;;;;;1.77;1.23;;;11.50;97.20;;;;;;1735235;28;20195;-71
2022/09/18 05:55:41;;;;;;;2.80;1.05;;;11.50;97.20;;;;;;1735202;28;20470;-71
2022/09/18 05:56:32;;;;;;;1.60;1.15;;;11.50;97.20;;;;;;1735112;28;20239;-71
2022/09/18 05:57:23;;;;;;;3.42;1.52;;;11.50;97.20;;;;;;1734746;28;20254;-71
2022/09/18 05:58:17;;;;;;;2.90;1.10;;;11.50;97.20;;;;;;1735239;28;20231;-71
2022/09/18 05:59:07;;;;;;;2.10;1.58;;;11.50;97.20;;;;;;1735204;28;20207;-71
2022/09/18 05:59:59;;;;;;;3.70;1.53;;;11.50;97.20;;;;;;1735176;28;20204;-71
2022/09/18 06:00:51;;;;;;;1.45;1.20;;;11.50;97.20;;;;;;1735159;28;20617;-71
2022/09/18 06:01:42;;;;;;;2.08;1.20;;;11.50;97.20;;;;;;1735185;28;20200;-71
2022/09/18 06:02:35;;;;;;;2.50;1.17;;;11.40;97.20;;;;;;1735141;28;20670;-70
2022/09/18 06:03:27;;;;;;;3.92;1.33;;;11.40;97.20;;;;;;1735308;28;20234;-71
2022/09/18 06:04:17;;;;;;;2.70;1.30;;;11.50;97.20;;;;;;1735143;28;20207;-71
2022/09/18 06:05:09;;;;;;;2.40;1.27;;;11.40;97.20;;;;;;1735144;28;20206;-71
2022/09/18 06:06:00;;;;;;;3.55;1.23;;;11.40;97.20;;;;;;1735265;28;20609;-71
2022/09/18 06:06:52;;;;;;;2.30;1.40;;;11.40;97.20;;;;;;1735695;28;20270;-71
2022/09/18 06:07:42;;;;;;;2.03;1.10;;;11.40;97.20;;;;;;1735427;28;20192;-71
2022/09/18 06:08:35;;;;;;;3.53;1.10;;;11.40;97.20;;;;;;1741300;28;20196;-71
2022/09/18 06:09:26;;;;;;;1.48;1.05;;;11.40;97.20;;;;;;1741934;28;20203;-71
2022/09/18 06:10:19;;;;;;;3.58;1.33;;;11.40;97.20;;;;;;1741947;28;20203;-71
2022/09/18 06:11:09;;;;;;;1.75;1.17;;;11.40;97.20;;;;;;1742038;28;20199;-71
2022/09/18 06:12:01;;;;;;;1.43;1.00;;;11.40;97.20;;;;;;1742026;28;20195;-71
2022/09/18 06:13:00;;;;;;;2.10;1.20;;;11.40;97.20;;;;;;1742019;28;20203;-71
2022/09/18 06:13:51;;;;;;;2.10;1.27;;;11.40;97.20;;;;;;1741983;28;20253;-71
2022/09/18 06:14:42;;;;;;;2.25;1.20;;;11.40;97.20;;;;;;1741990;28;20195;-70
2022/09/18 06:15:34;;;;;;;1.47;1.37;;;11.40;97.20;;;;;;1742128;28;20199;-71
2022/09/18 06:16:25;;;;;;;2.03;1.80;;;11.40;97.20;;;;;;1741884;28;20698;-71
2022/09/18 06:17:17;;;;;;;3.33;1.40;;;11.40;97.20;;;;;;1741545;28;20270;-71
2022/09/18 06:18:09;;;;;;;1.92;1.10;;;11.40;97.20;;;;;;1742020;28;20253;-71
2022/09/18 06:19:01;;;;;;;1.90;1.30;;;11.40;97.20;;;;;;1741935;28;20205;-72
2022/09/18 06:19:52;;;;;;;1.30;1.10;;;11.40;97.20;;;;;;1741895;28;20195;-71
2022/09/18 06:20:51;;;;;;;2.30;1.20;;;11.40;97.20;;;;;;1741930;28;20203;-71
2022/09/18 06:21:41;;;;;;;4.35;1.50;;;11.50;97.20;;;;;;1741997;28;20222;-71
2022/09/18 06:22:33;;;;;;;3.53;1.30;;;11.50;97.20;;;;;;1742038;28;20199;-71
2022/09/18 06:23:27;;;;;;;2.20;1.50;;;11.50;97.20;;;;;;1740138;28;20457;-71
2022/09/18 06:24:19;;;;;;;1.63;1.23;;;11.50;97.20;;;;;;1741647;28;20188;-71
2022/09/18 06:25:09;;;;;;;2.03;1.15;;;11.50;97.20;;;;;;1741859;28;20207;-71
2022/09/18 06:26:03;;;;;;;4.30;1.60;;;11.50;97.20;;;;;;1741553;28;20196;-71
2022/09/18 06:26:54;;;;;;;4.35;1.55;;;11.50;97.20;;;;;;1741818;28;20207;-72
2022/09/18 06:27:46;;;;;;;1.95;1.50;;;11.50;97.20;;;;;;1741597;28;20209;-71
2022/09/18 06:28:37;;;;;;;1.63;1.35;;;11.50;97.20;;;;;;1741795;28;20203;-72
2022/09/18 06:29:28;;;;;;;2.50;1.33;;;11.50;97.20;;;;;;1741932;28;20195;-71
2022/09/18 06:30:19;;;;;;;3.83;1.20;;;11.50;97.20;;;;;;1741836;28;20199;-71
2022/09/18 06:31:11;;;;;;;2.30;1.30;;;11.50;97.20;;;;;;1741885;28;20684;-71
2022/09/18 06:32:02;;;;;;;3.15;1.20;;;11.50;97.20;;;;;;1741983;28;20206;-71
2022/09/18 06:32:55;;;;;;;2.45;1.63;;;11.50;97.20;;;;;;1740118;28;20670;-73
2022/09/18 06:33:48;;;;;;;3.20;1.85;;;11.50;97.20;;;;;;1741806;28;20203;-71
2022/09/18 06:34:40;;;;;;;1.98;1.23;;;11.50;97.20;;;;;;1741759;28;20202;-71
2022/09/18 06:35:31;;;;;;;3.42;1.58;;;11.50;97.20;;;;;;1741926;28;20199;-71
2022/09/18 06:36:23;;;;;;;5.72;1.73;;;11.50;97.20;;;;;;1741815;28;20258;-71
2022/09/18 06:37:14;;;;;;;2.75;1.50;;;11.50;97.20;;;;;;1741461;28;20207;-72
2022/09/18 06:38:07;;;;;;;3.88;1.70;;;11.50;97.20;;;;;;1741790;28;20619;-72
2022/09/18 06:38:57;;;;;;;2.05;1.45;;;11.50;97.20;;;;;;1741845;28;20206;-71
2022/09/18 06:39:49;;;;;;;1.93;1.70;;;11.50;97.20;;;;;;1741892;28;20195;-72
2022/09/18 06:40:47;;;;;;;1.60;1.38;;;11.50;97.20;;;;;;1741742;28;20480;-71
2022/09/18 06:41:39;;;;;;;3.47;1.90;;;11.50;97.20;;;;;;1741756;28;20291;-71
2022/09/18 06:42:29;;;;;;;2.88;1.80;;;11.50;97.20;;;;;;1741823;28;20199;-70
2022/09/18 06:43:20;;;;;;;3.37;1.70;;;11.50;97.20;;;;;;1741769;28;20203;-71
2022/09/18 06:44:12;;;;;;;2.20;1.30;;;11.50;97.20;;;;;;1741833;28;20678;-72
2022/09/18 06:45:04;;;;;;;3.17;1.50;;;11.50;97.20;;;;;;1741933;28;20210;-71
2022/09/18 06:45:57;;;;;;;1.90;1.70;;;11.50;97.20;;;;;;1741739;28;20207;-72
2022/09/18 06:46:47;;;;;;;3.20;1.40;;;11.50;97.20;;;;;;1741623;28;20705;-71
2022/09/18 06:47:39;;;;;;;3.97;1.87;;;11.50;97.20;;;;;;1735310;28;20622;-71
2022/09/18 06:48:30;;;;;;;1.75;1.50;;;11.50;97.20;;;;;;1734339;28;20227;-72
2022/09/18 06:49:23;;;;;;;3.00;1.50;;;11.50;97.20;;;;;;1734691;28;20200;-71
2022/09/18 06:50:14;;;;;;;3.40;1.95;;;11.50;97.20;;;;;;1734896;28;20826;-71
2022/09/18 06:51:06;;;;;;;3.30;1.60;;;11.50;97.20;;;;;;1734822;28;20199;-71
2022/09/18 06:51:56;;;;;;;2.72;1.83;;;11.50;97.20;;;;;;1734793;28;20469;-71
2022/09/18 06:52:48;;;;;;;3.90;1.43;;;11.50;97.20;;;;;;1734825;28;20196;-71
2022/09/18 06:53:39;;;;;;;2.42;1.60;;;11.50;97.20;;;;;;1734789;28;20233;-71
2022/09/18 06:54:31;;;;;;;3.43;2.13;;;11.50;97.20;;;;;;1734901;28;20223;-71
2022/09/18 06:55:21;;;;;;;1.65;1.55;;;11.50;97.20;;;;;;1734781;28;20223;-70
2022/09/18 06:56:13;;;;;;;2.13;1.50;;;11.50;97.20;;;;;;1734709;28;20207;-71
2022/09/18 06:57:05;;;;;;;1.55;1.45;;;11.50;97.20;;;;;;1734852;28;20203;-71
2022/09/18 06:57:58;;;;;;;3.92;1.70;;;11.50;97.20;;;;;;1734437;28;20224;-71
2022/09/18 06:58:51;;;;;;;3.63;1.73;;;11.50;97.20;;;;;;1734704;28;20210;-71
2022/09/18 06:59:42;;;;;;;4.03;1.42;;;11.50;97.20;;;;;;1734764;28;20275;-72
2022/09/18 07:00:33;;;;;;;4.10;1.88;;;11.50;97.20;;;;;;1734802;28;20211;-71
2022/09/18 07:01:25;;;;;;;2.00;1.60;;;11.50;97.20;;;;;;1734700;28;20257;-71
2022/09/18 07:02:16;;;;;;;3.60;1.80;;;11.50;97.20;;;;;;1734758;28;20199;-71
2022/09/18 07:03:08;;;;;;;3.27;1.87;;;11.50;97.20;;;;;;1734925;28;20203;-71
2022/09/18 07:03:59;;;;;;;3.10;2.05;;;11.60;97.20;;;;;;1735726;28;20198;-72
2022/09/18 07:04:52;;;;;;;2.47;1.73;;;11.50;97.20;;;;;;1734841;28;20194;-71
2022/09/18 07:05:44;;;;;;;3.78;1.60;;;11.50;97.20;;;;;;1734646;28;20266;-71
2022/09/18 07:06:36;;;;;;;2.95;1.58;;;11.60;97.20;;;;;;1734623;28;20226;-71
2022/09/18 07:07:26;;;;;;;2.85;1.70;;;11.60;97.20;;;;;;1734477;28;20196;-71
2022/09/18 07:08:18;;;;;;;2.50;1.80;;;11.60;97.20;;;;;;1734723;28;20689;-71
2022/09/18 07:09:09;;;;;;;2.40;1.73;;;11.60;97.20;;;;;;1734811;28;20200;-71
2022/09/18 07:10:00;;;;;;;2.73;1.73;;;11.60;97.20;;;;;;1734717;28;20196;-71
2022/09/18 07:10:51;;;;;;;4.03;1.63;;;11.60;97.20;;;;;;1734767;28;20204;-71
2022/09/18 07:11:43;;;;;;;3.27;1.83;;;11.60;97.20;;;;;;1734667;28;20196;-71
2022/09/18 07:12:34;;;;;;;4.00;1.42;;;11.50;97.20;;;;;;1734711;28;20204;-71
2022/09/18 07:13:25;;;;;;;1.63;1.27;;;11.50;97.20;;;;;;1734641;28;20199;-71
2022/09/18 07:14:16;;;;;;;1.67;1.52;;;11.50;97.20;;;;;;1734838;28;20199;-71
2022/09/18 07:15:08;;;;;;;2.60;1.50;;;11.50;97.20;;;;;;1734712;28;20210;-71
2022/09/18 07:16:02;;;;;;;2.45;1.90;;;11.60;97.20;;;;;;1734757;28;20215;-71
2022/09/18 07:16:54;;;;;;;4.97;1.58;;;11.60;97.20;;;;;;1734661;28;20198;-72
2022/09/18 07:17:45;;;;;;;3.03;1.67;;;11.60;97.20;;;;;;1734242;28;20230;-71
2022/09/18 07:18:36;;;;;;;3.93;2.10;;;11.60;97.20;;;;;;1734561;28;20208;-71
2022/09/18 07:19:27;;;;;;;2.75;1.60;;;11.60;97.20;;;;;;1734627;28;20450;-71
2022/09/18 07:20:20;;;;;;;2.80;1.50;;;11.60;97.20;;;;;;1735350;28;20236;-72
2022/09/18 07:21:11;;;;;;;1.50;1.40;;;11.60;97.20;;;;;;1734568;28;20214;-71
2022/09/18 07:22:03;;;;;;;2.27;2.07;;;11.60;97.20;;;;;;1734682;28;20238;-72
2022/09/18 07:22:55;;;;;;;3.22;1.88;;;11.60;97.20;;;;;;1734625;28;20236;-71
2022/09/18 07:23:47;;;;;;;2.03;1.38;;;11.70;97.20;;;;;;1734591;28;20200;-71
2022/09/18 07:24:37;;;;;;;3.70;1.63;;;11.70;97.20;;;;;;1734607;28;20196;-72
2022/09/18 07:25:31;;;;;;;3.90;1.97;;;11.70;97.20;;;;;;1734687;28;20202;-72
2022/09/18 07:26:22;;;;;;;1.92;1.73;;;11.70;97.20;;;;;;1734431;28;20223;-71
2022/09/18 07:27:13;;;;;;;4.97;1.63;;;11.70;97.20;;;;;;1734326;28;20196;-71
2022/09/18 07:28:06;;;;;;;3.63;1.58;;;11.70;97.20;;;;;;1734580;28;20199;-71
2022/09/18 07:28:58;;;;;;;2.38;1.90;;;11.80;97.20;;;;;;1734556;28;20234;-72
2022/09/18 07:29:49;;;;;;;3.90;1.75;;;11.80;97.20;;;;;;1734615;28;20663;-72
2022/09/18 07:30:41;;;;;;;2.00;1.40;;;11.80;97.20;;;;;;1734530;28;20574;-71
2022/09/18 07:31:33;;;;;;;2.78;1.70;;;11.80;97.20;;;;;;1734596;28;20196;-71
2022/09/18 07:32:26;;;;;;;2.20;1.42;;;11.80;97.20;;;;;;1734544;28;20257;-71
2022/09/18 07:33:16;;;;;;;3.15;1.75;;;11.80;97.20;;;;;;1734542;28;20231;-71
2022/09/18 07:34:08;;;;;;;2.63;1.70;;;11.80;97.20;;;;;;1734585;28;20200;-71
2022/09/18 07:34:59;;;;;;;3.63;1.92;;;11.80;97.20;;;;;;1734573;28;20713;-71
2022/09/18 07:35:52;;;;;;;1.43;1.30;;;11.80;97.20;;;;;;1734672;28;20562;-71
2022/09/18 07:36:42;;;;;;;1.85;1.45;;;11.80;97.20;;;;;;1734455;28;20228;-71
2022/09/18 07:37:34;;;;;;;2.00;1.43;;;11.90;97.20;;;;;;1741133;28;20195;-71
2022/09/18 07:38:25;;;;;;;4.35;1.40;;;11.90;97.20;;;;;;1741248;28;20234;-71
2022/09/18 07:39:17;;;;;;;1.40;1.27;;;11.90;97.20;;;;;;1741436;28;20218;-71
2022/09/18 07:40:10;;;;;;;1.95;1.60;;;11.90;97.20;;;;;;1741440;28;20203;-71
2022/09/18 07:41:03;;;;;;;2.95;1.30;;;11.90;97.20;;;;;;1741355;28;20205;-71
2022/09/18 07:41:54;;;;;;;5.10;2.20;;;11.90;97.20;;;;;;1741391;28;20602;-71
2022/09/18 07:42:46;;;;;;;3.08;1.70;;;11.90;97.20;;;;;;1741368;28;20203;-72
2022/09/18 07:43:36;;;;;;;2.60;1.60;;;11.90;97.20;;;;;;1741442;28;20196;-71
2022/09/18 07:44:29;;;;;;;2.27;1.67;;;11.90;97.20;;;;;;1741383;28;20291;-71
2022/09/18 07:45:20;;;;;;;3.38;1.55;;;11.90;97.20;;;;;;1741330;28;20273;-71
2022/09/18 07:46:12;;;;;;;3.23;1.67;;;11.90;97.20;;;;;;1741332;28;20199;-72
2022/09/18 07:47:03;;;;;;;1.63;1.30;;;11.90;97.20;;;;;;1741310;28;20222;-70
2022/09/18 07:47:55;;;;;;;5.28;1.50;;;11.90;97.20;;;;;;1741073;28;20205;-72
2022/09/18 07:48:46;;;;;;;1.52;1.33;;;11.90;97.20;;;;;;1741248;28;20202;-71
2022/09/18 07:49:39;;;;;;;2.37;1.30;;;11.90;97.20;;;;;;1741355;28;20197;-71
2022/09/18 07:50:30;;;;;;;3.30;1.67;;;11.90;97.20;;;;;;1741324;28;20198;-72
2022/09/18 07:51:23;;;;;;;4.15;2.00;;;11.90;97.20;;;;;;1741249;28;20203;-71
2022/09/18 07:52:14;;;;;;;2.08;1.40;;;11.90;97.20;;;;;;1741411;28;20260;-70
2022/09/18 07:53:07;;;;;;;4.27;1.23;;;11.90;97.20;;;;;;1741345;28;20207;-70
2022/09/18 07:53:58;;;;;;;3.28;1.60;;;11.90;97.20;;;;;;1739651;28;20278;-71
2022/09/18 07:54:50;;;;;;;1.83;1.50;;;12.00;97.20;;;;;;1741322;28;20278;-71
2022/09/18 07:55:44;;;;;;;2.75;1.20;;;12.00;97.20;;;;;;1741285;28;20199;-71
2022/09/18 07:56:35;;;;;;;2.28;1.50;;;11.90;97.20;;;;;;1741102;28;20231;-71
2022/09/18 07:57:26;;;;;;;3.45;1.50;;;12.00;97.20;;;;;;1740938;28;20210;-72
2022/09/18 07:58:18;;;;;;;3.07;1.60;;;12.00;97.20;;;;;;1741164;28;20223;-72
2022/09/18 07:59:09;;;;;;;3.78;1.40;;;12.00;97.20;;;;;;1741256;28;20203;-71
2022/09/18 08:00:01;;;;;;;4.77;1.57;;;12.00;97.20;;;;;;1740947;28;20198;-71
2022/09/18 08:00:51;;;;;;;2.40;1.35;;;12.00;97.20;;;;;;1740769;28;20203;-71
2022/09/18 08:01:43;;;;;;;3.57;1.80;;;12.00;97.20;;;;;;1741231;28;20278;-71
2022/09/18 08:02:34;;;;;;;1.42;1.20;;;12.00;97.20;;;;;;1741199;28;20237;-71
2022/09/18 08:03:25;;;;;;;2.60;1.20;;;12.00;97.20;;;;;;1741242;28;20191;-71
2022/09/18 08:04:16;;;;;;;2.00;1.40;;;12.00;97.20;;;;;;1741199;28;20207;-71
2022/09/18 08:05:08;;;;;;;2.30;1.13;;;12.00;97.20;;;;;;1741233;28;20195;-71
2022/09/18 08:05:59;;;;;;;2.83;2.25;;;12.00;97.20;;;;;;1741271;28;20211;-72
2022/09/18 08:06:53;;;;;;;1.50;1.10;;;12.00;97.20;;;;;;1741192;28;20191;-72
2022/09/18 08:07:44;;;;;;;2.47;1.45;;;12.00;97.20;;;;;;1740899;28;20720;-71
2022/09/18 08:08:36;;;;;;;2.70;1.37;;;12.00;97.20;;;;;;1741184;28;20574;-71
2022/09/18 08:09:27;;;;;;;2.35;1.25;;;12.00;97.20;;;;;;1741165;28;20199;-71
2022/09/18 08:10:18;;;;;;;3.03;1.40;;;12.00;97.20;;;;;;1741198;28;20206;-71
2022/09/18 08:11:09;;;;;;;3.17;1.60;;;12.00;97.20;;;;;;1739237;28;20656;-71
2022/09/18 08:12:02;;;;;;;4.97;1.50;;;12.00;97.20;;;;;;1741227;28;20608;-71
2022/09/18 08:12:53;;;;;;;4.40;1.48;;;12.00;97.20;;;;;;1741253;28;20203;-71
2022/09/18 08:13:47;;;;;;;1.97;1.40;;;12.00;97.20;;;;;;1741135;28;20199;-71
2022/09/18 08:14:38;;;;;;;1.42;1.20;;;12.00;97.20;;;;;;1741131;28;20207;-71
2022/09/18 08:15:31;;;;;;;1.67;1.37;;;12.00;97.20;;;;;;1741260;28;20195;-71
2022/09/18 08:16:21;;;;;;;2.35;1.60;;;12.00;97.20;;;;;;1741027;28;20227;-72
2022/09/18 08:17:13;;;;;;;2.33;1.50;;;12.00;97.20;;;;;;1740930;28;20195;-71
2022/09/18 08:18:04;;;;;;;2.85;1.58;;;12.10;97.20;;;;;;1741046;28;20203;-71
2022/09/18 08:18:57;;;;;;;3.72;1.65;;;12.10;97.20;;;;;;1741043;28;20269;-71
2022/09/18 08:19:48;;;;;;;4.35;1.55;;;12.00;97.20;;;;;;1741180;28;20199;-71
2022/09/18 08:20:40;;;;;;;2.67;1.40;;;12.00;97.20;;;;;;1741160;28;20195;-70
2022/09/18 08:21:31;;;;;;;1.52;1.30;;;12.00;97.20;;;;;;1741235;28;20237;-71
2022/09/18 08:22:23;;;;;;;4.07;1.47;;;12.00;97.20;;;;;;1741133;28;20203;-71
2022/09/18 08:23:15;;;;;;;3.17;1.15;;;12.00;97.20;;;;;;1741167;28;20211;-71
2022/09/18 08:24:06;;;;;;;2.53;1.27;;;12.00;97.20;;;;;;1741169;28;20199;-71
2022/09/18 08:24:58;;;;;;;3.47;1.58;;;12.00;97.20;;;;;;1741130;28;20702;-71
2022/09/18 08:25:48;;;;;;;2.60;1.30;;;12.00;97.20;;;;;;1741151;28;20202;-71
2022/09/18 08:26:40;;;;;;;4.60;1.67;;;12.00;97.20;;;;;;1740995;28;20219;-71
2022/09/18 08:27:34;;;;;;;1.70;1.42;;;12.00;97.20;;;;;;1739225;28;20196;-71
2022/09/18 08:28:25;;;;;;;3.20;1.40;;;12.10;97.20;;;;;;1741028;28;20195;-71
2022/09/18 08:29:17;;;;;;;3.72;1.73;;;12.10;97.20;;;;;;1741303;28;20688;-71
2022/09/18 08:30:12;;;;;;;2.63;1.27;;;12.10;97.20;;;;;;1741192;28;20209;-71
2022/09/18 08:31:02;;;;;;;2.60;1.30;;;12.10;97.20;;;;;;1741185;28;20580;-72
2022/09/18 08:31:54;;;;;;;2.90;1.50;;;12.10;97.20;;;;;;1741215;28;20191;-71
2022/09/18 08:32:45;;;;;;;3.38;1.35;;;12.10;97.20;;;;;;1741119;28;20488;-72
2022/09/18 08:33:36;;;;;;;2.40;1.70;;;12.10;97.20;;;;;;1741051;28;20205;-71
2022/09/18 08:34:27;;;;;;;2.17;1.52;;;12.10;97.20;;;;;;1741145;28;20206;-71
2022/09/18 08:35:19;;;;;;;1.33;1.00;;;12.10;97.20;;;;;;1741217;28;20199;-71
2022/09/18 08:36:09;;;;;;;3.75;1.60;;;12.10;97.20;;;;;;1741130;28;20203;-71
2022/09/18 08:37:01;;;;;;;1.43;1.20;;;12.10;97.20;;;;;;1741097;28;20210;-71
2022/09/18 08:37:54;;;;;;;2.63;1.40;;;12.10;97.20;;;;;;1740817;28;20199;-72
2022/09/18 08:38:46;;;;;;;2.63;1.50;;;12.10;97.20;;;;;;1740923;28;20219;-71
2022/09/18 08:39:36;;;;;;;2.35;1.65;;;12.10;97.20;;;;;;1741011;28;20235;-71
2022/09/18 08:40:54;;;;;;;4.63;1.40;;;12.10;97.20;;;;;;1741060;28;20202;-70
2022/09/18 08:41:58;;;;;;;1.90;1.35;;;12.10;97.20;;;;;;1741188;28;20581;-71
2022/09/18 08:43:05;;;;;;;2.63;1.40;;;12.10;97.20;;;;;;1741230;28;20203;-71
2022/09/18 08:44:02;;;;;;;2.20;1.52;;;12.20;97.20;;;;;;1737623;28;20582;-71
2022/09/18 08:44:59;;;;;;;2.20;1.30;;;12.20;97.20;;;;;;1734252;28;20257;-70
2022/09/18 08:45:55;;;;;;;2.60;2.00;;;12.20;97.20;;;;;;1734203;28;20215;-71
2022/09/18 08:46:52;;;;;;;3.15;1.40;;;12.20;97.20;;;;;;1734126;28;20216;-71
2022/09/18 08:47:49;;;;;;;6.85;3.15;;;12.20;97.20;;;;;;1733903;28;20200;-71
2022/09/18 08:48:46;;;;;;;2.13;1.67;;;12.20;97.20;;;;;;1734125;28;20202;-71
2022/09/18 08:49:43;;;;;;;3.15;1.40;;;12.20;97.20;;;;;;1734311;28;20720;-71
2022/09/18 08:50:39;;;;;;;4.80;1.55;;;12.20;97.20;;;;;;1734238;28;20196;-71
2022/09/18 08:51:37;;;;;;;5.55;2.00;;;12.20;97.20;;;;;;1734318;28;20214;-71
2022/09/18 08:52:31;;;;;;;2.55;1.83;;;12.30;97.20;;;;;;1734158;28;20231;-71
2022/09/18 08:53:30;;;;;;;4.15;1.98;;;12.30;97.20;;;;;;1734027;28;20269;-71
2022/09/18 08:54:32;;;;;;;3.22;1.55;;;12.30;97.20;;;;;;1734180;28;20208;-71
2022/09/18 08:55:28;;;;;;;3.78;1.55;;;12.30;97.20;;;;;;1734149;28;20624;-71
2022/09/18 08:56:22;;;;;;;1.90;1.40;;;12.30;97.20;;;;;;1734019;28;20210;-71
2022/09/18 08:57:19;;;;;;;3.17;1.38;;;12.30;97.20;;;;;;1733891;28;20254;-71
2022/09/18 08:58:13;;;;;;;2.10;1.45;;;12.40;97.20;;;;;;1734182;28;20592;-70
2022/09/18 08:59:10;;;;;;;3.58;1.98;;;12.30;97.20;;;;;;1734018;28;20203;-72
2022/09/18 09:00:07;;;;;;;3.08;1.65;;;12.30;97.20;;;;;;1734145;28;20215;-71
2022/09/18 09:01:02;;;;;;;3.15;1.60;;;12.30;97.20;;;;;;1737881;28;20227;-72
2022/09/18 09:02:07;;;;;;;4.45;1.58;;;12.30;97.20;;;;;;1741032;28;20240;-71
2022/09/18 09:03:08;;;;;;;1.70;1.60;;;12.30;97.20;;;;;;1740977;28;20226;-71
2022/09/18 09:04:03;;;;;;;4.15;1.60;;;12.30;97.20;;;;;;1741028;28;20230;-71
2022/09/18 09:04:58;;;;;;;3.65;1.30;;;12.30;97.20;;;;;;1741066;28;20195;-71
2022/09/18 09:05:55;;;;;;;2.55;1.50;;;12.20;97.20;;;;;;1741016;28;20260;-72
2022/09/18 09:07:03;;;;;;;3.35;1.70;;;12.30;97.20;;;;;;1740907;28;20257;-71
2022/09/18 09:08:14;;;;;;;3.30;1.50;;;12.20;97.20;;;;;;1740929;28;20204;-71
2022/09/18 09:09:27;;;;;;;2.67;1.92;;;12.20;97.20;;;;;;1741080;28;20207;-72
2022/09/18 09:10:37;;;;;;;2.90;1.63;;;12.20;97.20;;;;;;1741001;28;20199;-71
2022/09/18 09:11:37;;;;;;;1.58;1.48;;;12.20;97.20;;;;;;1740999;28;20231;-71
2022/09/18 09:12:37;;;;;;;3.53;1.52;;;12.20;97.20;;;;;;1742430;28;20203;-72
2022/09/18 09:13:59;;;;;;;2.47;1.80;;;12.20;97.20;;;;;;1742428;28;20300;-71
2022/09/18 09:15:14;;;;;;;4.82;1.67;;;12.20;97.20;;;;;;1742383;28;20202;-71
2022/09/18 09:16:11;;;;;;;2.17;1.33;;;12.20;97.20;;;;;;1741975;28;20202;-71
2022/09/18 09:17:12;;;;;;;2.28;1.40;;;12.20;97.20;;;;;;1735334;28;20338;-71
2022/09/18 09:18:15;;;;;;;2.55;1.50;;;12.10;97.20;;;;;;1741658;28;20199;-72
2022/09/18 09:19:25;;;;;;;2.13;1.50;;;12.20;97.20;;;;;;1741941;28;20280;-72
2022/09/18 09:20:41;;;;;;;2.95;1.33;;;12.20;97.20;;;;;;1742044;28;20207;-72
2022/09/18 09:21:54;;;;;;;2.58;1.65;;;12.20;97.20;;;;;;1735439;28;20195;-72
2022/09/18 09:22:52;;;;;;;1.90;1.40;;;12.30;97.20;;;;;;1735552;28;20279;-72
2022/09/18 09:23:54;;;;;;;2.45;1.38;;;12.30;97.20;;;;;;1735434;28;20627;-71
2022/09/18 09:25:01;;;;;;;2.22;1.55;;;12.30;97.20;;;;;;1735426;28;20200;-72
2022/09/18 09:26:00;;;;;;;1.58;1.40;;;12.30;97.20;;;;;;1735512;28;20211;-71
2022/09/18 09:26:55;;;;;;;2.60;1.45;;;12.30;97.20;;;;;;1735441;28;20195;-71
2022/09/18 09:27:51;;;;;;;4.22;1.83;;;12.40;97.20;;;;;;1735062;28;20689;-71
2022/09/18 09:28:52;;;;;;;2.45;1.50;;;12.40;97.20;;;;;;1735307;28;20667;-71
2022/09/18 09:29:45;;;;;;;3.45;1.77;;;12.40;97.20;;;;;;1735389;28;20219;-72
2022/09/18 09:30:39;;;;;;;6.80;2.35;;;12.40;97.20;;;;;;1735274;28;20210;-71
2022/09/18 09:31:35;;;;;;;2.83;1.40;;;12.40;97.20;;;;;;1735320;28;20200;-71
2022/09/18 09:32:31;;;;;;;2.92;1.77;;;12.40;97.20;;;;;;1735366;28;20241;-71
2022/09/18 09:33:26;;;;;;;2.03;1.20;;;12.40;97.20;;;;;;1735391;28;20204;-72
2022/09/18 09:34:21;;;;;;;4.20;1.77;;;12.40;97.20;;;;;;1736329;28;20204;-72
2022/09/18 09:35:22;;;;;;;3.33;1.50;;;12.40;97.20;;;;;;1735491;28;20208;-72
2022/09/18 09:36:16;;;;;;;3.25;1.52;;;12.40;97.20;;;;;;1735373;28;20200;-72
2022/09/18 09:37:15;;;;;;;3.85;1.65;;;12.40;97.20;;;;;;1735310;28;20687;-72
2022/09/18 09:38:25;;;;;;;2.15;1.60;;;12.40;97.20;;;;;;1735363;28;20200;-72